Time;durP1;ratioP1;P1;durP2;ratioP2;P2;SDS_P1;SDS_P2;PMS_P1;PMS_P2;Temp;Humidity;BMP_temperature;BMP_pressure;BME280_temperature;BME280_humidity;BME280_pressure;Samples;Min_cycle;Max_cycle;Signal;HPM_P1;HPM_P2
2021/12/16 00:01:53;;;;;;;;;;;8.60;99.90;;;;;;5052898;28;20275;-76
2021/12/16 00:09:46;;;;;;;;;;;8.70;99.90;;;;;;5053129;28;19915;-76
2021/12/16 00:34:00;;;;;;;;;;;8.30;99.90;;;;;;5051774;28;20263;-77
2021/12/16 00:36:26;;;;;;;;;;;8.20;99.90;;;;;;5052651;28;19911;-76
2021/12/16 00:38:52;;;;;;;;;;;8.10;99.90;;;;;;5052248;28;19904;-75
2021/12/16 00:41:17;;;;;;;;;;;8.10;99.90;;;;;;5052731;28;19904;-75
2021/12/16 00:43:53;;;;;;;;;;;8.00;99.90;;;;;;5052028;28;20355;-75
2021/12/16 00:54:30;;;;;;;;;;;7.90;99.90;;;;;;5052764;28;19958;-76
2021/12/16 00:57:02;;;;;;;;;;;7.80;99.90;;;;;;5052006;28;19944;-75
2021/12/16 00:59:33;;;;;;;;;;;7.70;99.90;;;;;;5052608;28;19905;-75
2021/12/16 01:10:29;;;;;;;;;;;7.50;99.90;;;;;;5052799;28;19904;-75
2021/12/16 01:34:49;;;;;;;;;;;7.10;99.90;;;;;;5052244;28;20397;-75
2021/12/16 01:37:51;;;;;;;;;;;7.10;99.90;;;;;;5052332;28;19972;-75
2021/12/16 01:41:31;;;;;;;;;;;7.10;99.90;;;;;;5051893;28;19916;-75
2021/12/16 01:46:11;;;;;;;;;;;6.90;99.90;;;;;;5051630;28;19916;-75
2021/12/16 01:49:30;;;;;;;;;;;6.90;99.90;;;;;;5052500;28;20365;-75
2021/12/16 01:51:26;;;;;;;;;;;6.80;99.90;;;;;;5054922;28;19905;-76
2021/12/16 01:57:02;;;;;;;;;;;6.70;99.90;;;;;;5060395;28;19966;-75
2021/12/16 01:59:34;;;;;;;;;;;6.60;99.90;;;;;;5071956;28;19947;-75
2021/12/16 02:02:11;;;;;;;;;;;6.50;99.90;;;;;;5069690;28;19900;-75
2021/12/16 02:04:44;;;;;;;;;;;6.50;99.90;;;;;;5055938;28;19912;-75
2021/12/16 02:07:29;;;;;;;;;;;6.50;99.90;;;;;;5055433;28;19920;-75
2021/12/16 02:10:02;;;;;;;;;;;6.50;99.90;;;;;;5054974;28;20371;-75
2021/12/16 02:12:54;;;;;;;;;;;6.50;99.90;;;;;;5055871;28;19905;-75
2021/12/16 02:29:25;;;;;;;;;;;6.10;99.90;;;;;;5055087;28;19977;-75
2021/12/16 02:32:05;;;;;;;;;;;6.10;99.90;;;;;;5054771;28;19905;-75
2021/12/16 02:35:11;;;;;;;;;;;6.00;99.90;;;;;;5055030;28;20260;-75
2021/12/16 02:37:19;;;;;;;;;;;6.00;99.90;;;;;;5054876;28;19974;-75
2021/12/16 02:39:45;;;;;;;;;;;6.00;99.90;;;;;;5054759;28;19905;-76
2021/12/16 02:42:17;;;;;;;;;;;6.00;99.90;;;;;;5055271;28;19911;-75
2021/12/16 02:50:12;;;;;;;;;;;6.10;99.90;;;;;;5054758;28;19912;-74
2021/12/16 02:52:37;;;;;;;;;;;6.10;99.90;;;;;;5055210;28;19904;-75
2021/12/16 02:55:04;;;;;;;;;;;6.10;99.90;;;;;;5054518;28;20514;-75
2021/12/16 02:57:33;;;;;;;;;;;6.10;99.90;;;;;;5055103;28;20014;-75
2021/12/16 02:59:58;;;;;;;;;;;6.10;99.90;;;;;;5054435;28;19907;-75
2021/12/16 03:02:26;;;;;;;;;;;6.00;99.90;;;;;;5055024;28;19927;-75
2021/12/16 03:04:52;;;;;;;;;;;6.00;99.90;;;;;;5052688;28;19919;-75
2021/12/16 03:07:20;;;;;;;;;;;6.00;99.90;;;;;;5054694;28;19916;-75
2021/12/16 03:15:15;;;;;;;;;;;5.80;99.90;;;;;;5054081;28;20001;-75
2021/12/16 03:20:20;;;;;;;;;;;5.70;99.90;;;;;;5054504;28;19916;-75
2021/12/16 03:23:08;;;;;;;;;;;5.70;99.90;;;;;;5054120;28;19904;-75
2021/12/16 03:25:55;;;;;;;;;;;5.70;99.90;;;;;;5054704;28;19915;-75
2021/12/16 03:37:01;;;;;;;;;;;5.60;99.90;;;;;;5054371;28;19957;-75
2021/12/16 03:39:31;;;;;;;;;;;5.50;99.90;;;;;;5054658;28;19905;-76
2021/12/16 03:41:57;;;;;;;;;;;5.50;99.90;;;;;;5053661;28;19904;-74
2021/12/16 03:44:32;;;;;;;;;;;5.50;99.90;;;;;;5054263;28;19916;-75
2021/12/16 03:46:58;;;;;;;;;;;5.50;99.90;;;;;;5052324;28;19911;-75
2021/12/16 03:49:25;;;;;;;;;;;5.50;99.90;;;;;;5054154;28;19904;-74
2021/12/16 03:51:56;;;;;;;;;;;5.50;99.90;;;;;;5053206;28;19905;-75
2021/12/16 03:54:24;;;;;;;;;;;5.50;99.90;;;;;;5054135;28;20339;-74
2021/12/16 03:56:51;;;;;;;;;;;5.40;99.90;;;;;;5053313;28;19951;-75
2021/12/16 03:59:18;;;;;;;;;;;5.50;99.90;;;;;;5053806;28;19999;-75
2021/12/16 04:01:44;;;;;;;;;;;5.50;99.90;;;;;;5053817;28;19912;-75
2021/12/16 04:04:10;;;;;;;;;;;5.60;99.90;;;;;;5053003;28;19912;-75
2021/12/16 04:06:36;;;;;;;;;;;5.50;99.90;;;;;;5053732;28;19995;-76
2021/12/16 04:09:03;;;;;;;;;;;5.60;99.90;;;;;;5053007;28;19924;-75
2021/12/16 04:11:38;;;;;;;;;;;5.60;99.90;;;;;;5053308;28;19905;-75
2021/12/16 04:14:04;;;;;;;;;;;5.50;99.90;;;;;;5052824;28;20282;-73
2021/12/16 04:16:32;;;;;;;;;;;5.60;99.90;;;;;;5052849;28;20294;-75
2021/12/16 04:18:58;;;;;;;;;;;5.60;99.90;;;;;;5051610;28;20008;-74
2021/12/16 04:21:26;;;;;;;;;;;5.60;99.90;;;;;;5053301;28;20359;-74
2021/12/16 04:23:53;;;;;;;;;;;5.60;99.90;;;;;;5052662;28;20271;-73
2021/12/16 04:26:19;;;;;;;;;;;5.50;99.90;;;;;;5053049;28;19905;-74
2021/12/16 04:28:44;;;;;;;;;;;5.50;99.90;;;;;;5053385;28;19912;-74
2021/12/16 04:31:10;;;;;;;;;;;5.50;99.90;;;;;;5052705;28;19904;-74
2021/12/16 04:33:39;;;;;;;;;;;5.50;99.90;;;;;;5056113;28;19904;-74
2021/12/16 04:36:07;;;;;;;;;;;5.50;99.90;;;;;;5052303;28;19984;-74
2021/12/16 04:38:32;;;;;;;;;;;5.40;99.90;;;;;;5053204;28;19966;-74
2021/12/16 04:40:58;;;;;;;;;;;5.40;99.90;;;;;;5052305;28;20360;-74
2021/12/16 04:43:33;;;;;;;;;;;5.40;99.90;;;;;;5053003;28;19912;-74
2021/12/16 04:45:58;;;;;;;;;;;5.50;99.90;;;;;;5052402;28;19905;-74
2021/12/16 04:48:24;;;;;;;;;;;5.50;99.90;;;;;;5052837;28;19999;-74
2021/12/16 04:50:50;;;;;;;;;;;5.50;99.90;;;;;;5053036;28;19992;-74
2021/12/16 04:53:16;;;;;;;;;;;5.60;99.90;;;;;;5052357;28;19905;-74
2021/12/16 04:55:41;;;;;;;;;;;5.60;99.90;;;;;;5053011;28;19912;-74
2021/12/16 04:58:07;;;;;;;;;;;5.60;99.90;;;;;;5052087;28;19905;-74
2021/12/16 05:00:33;;;;;;;;;;;5.60;99.90;;;;;;5052932;28;19931;-74
2021/12/16 05:02:58;;;;;;;;;;;5.70;99.90;;;;;;5052165;28;19947;-73
2021/12/16 05:05:24;;;;;;;;;;;5.70;99.90;;;;;;5052583;28;19911;-73
2021/12/16 05:07:50;;;;;;;;;;;5.80;99.90;;;;;;5052431;28;19923;-73
2021/12/16 05:10:17;;;;;;;;;;;5.80;99.90;;;;;;5051922;28;19904;-74
2021/12/16 05:12:46;;;;;;;;;;;5.80;99.90;;;;;;5052764;28;19909;-76
2021/12/16 05:15:19;;;;;;;;;;;5.80;99.90;;;;;;5052019;28;20058;-74
2021/12/16 05:17:48;;;;;;;;;;;5.90;99.90;;;;;;5051345;28;19904;-74
2021/12/16 05:20:16;;;;;;;;;;;5.90;99.90;;;;;;5052070;28;19901;-74
2021/12/16 05:27:53;;;;;;;;;;;6.10;99.90;;;;;;5054163;28;19904;-74
2021/12/16 05:30:19;;;;;;;;;;;6.10;99.90;;;;;;5056398;28;19912;-73
2021/12/16 05:32:46;;;;;;;;;;;6.10;99.90;;;;;;5056764;28;20267;-74
2021/12/16 05:35:19;;;;;;;;;;;6.20;99.90;;;;;;5055943;28;19905;-74
2021/12/16 05:37:45;;;;;;;;;;;6.20;99.90;;;;;;5056624;28;19958;-73
2021/12/16 05:40:12;;;;;;;;;;;6.20;99.90;;;;;;5055872;28;19909;-74
2021/12/16 05:42:37;;;;;;;;;;;6.20;99.90;;;;;;5056517;28;19994;-73
2021/12/16 05:45:04;;;;;;;;;;;6.30;99.90;;;;;;5055754;28;19956;-74
2021/12/16 05:47:30;;;;;;;;;;;6.30;99.90;;;;;;5056426;28;19904;-73
2021/12/16 05:49:55;;;;;;;;;;;6.40;99.90;;;;;;5055981;28;19913;-74
2021/12/16 05:52:21;;;;;;;;;;;6.40;99.90;;;;;;5055726;28;19904;-73
2021/12/16 05:54:47;;;;;;;;;;;6.50;99.90;;;;;;5056504;28;19912;-73
2021/12/16 05:57:13;;;;;;;;;;;6.50;99.90;;;;;;5055324;28;19955;-74
2021/12/16 05:59:38;;;;;;;;;;;6.40;99.90;;;;;;5056203;28;19928;-74
2021/12/16 06:02:04;;;;;;;;;;;6.50;99.90;;;;;;5055403;28;20021;-74
2021/12/16 06:04:30;;;;;;;;;;;6.50;99.90;;;;;;5056067;28;19952;-74
2021/12/16 06:06:55;;;;;;;;;;;6.50;99.90;;;;;;5055574;28;19951;-74
2021/12/16 06:09:21;;;;;;;;;;;6.60;99.90;;;;;;5055318;28;20363;-74
2021/12/16 06:11:48;;;;;;;;;;;6.60;99.90;;;;;;5056013;28;20387;-74
2021/12/16 06:14:39;;;;;;;;;;;6.60;99.90;;;;;;5055381;28;19904;-75
2021/12/16 06:28:05;;;;;;;;;;;6.80;99.90;;;;;;5055104;28;19915;-74
2021/12/16 06:30:33;;;;;;;;;;;6.80;99.90;;;;;;5055339;28;19912;-74
2021/12/16 06:33:00;;;;;;;;;;;6.90;99.90;;;;;;5055276;28;19905;-75
2021/12/16 06:35:25;;;;;;;;;;;6.90;99.90;;;;;;5055235;28;19951;-74
2021/12/16 06:37:51;;;;;;;;;;;6.90;99.90;;;;;;5055444;28;19904;-74
2021/12/16 06:40:17;;;;;;;;;;;7.00;99.90;;;;;;5054192;28;19905;-74
2021/12/16 06:42:43;;;;;;;;;;;7.10;99.90;;;;;;5055297;28;19954;-74
2021/12/16 06:45:14;;;;;;;;;;;7.20;99.90;;;;;;5054635;28;19905;-74
2021/12/16 06:47:48;;;;;;;;;;;7.30;99.90;;;;;;5055150;28;20442;-74
2021/12/16 06:50:24;;;;;;;;;;;7.20;99.90;;;;;;5053891;28;19915;-74
2021/12/16 06:52:50;;;;;;;;;;;7.30;99.90;;;;;;5055043;28;19912;-73
2021/12/16 06:55:27;;;;;;;;;;;7.30;99.90;;;;;;5053906;28;20358;-74
2021/12/16 06:57:56;;;;;;;;;;;7.40;99.90;;;;;;5055280;28;19915;-73
2021/12/16 07:00:31;;;;;;;;;;;7.40;99.90;;;;;;5068302;28;19900;-73
2021/12/16 07:03:00;;;;;;;;;;;7.40;99.90;;;;;;5068852;28;19975;-74
2021/12/16 07:05:36;;;;;;;;;;;7.40;99.90;;;;;;5054330;28;19905;-74
2021/12/16 07:08:04;;;;;;;;;;;7.50;99.90;;;;;;5054364;28;20014;-74
2021/12/16 07:10:29;;;;;;;;;;;7.50;99.90;;;;;;5054453;28;19947;-74
2021/12/16 07:12:57;;;;;;;;;;;7.50;99.90;;;;;;5054136;28;19976;-74
2021/12/16 07:15:24;;;;;;;;;;;7.60;99.90;;;;;;5054050;28;19947;-74
2021/12/16 07:17:50;;;;;;;;;;;7.60;99.90;;;;;;5054478;28;19911;-74
2021/12/16 07:20:18;;;;;;;;;;;7.60;99.90;;;;;;5052359;28;19911;-74
2021/12/16 07:22:44;;;;;;;;;;;7.70;99.90;;;;;;5054525;28;19908;-74
2021/12/16 07:25:10;;;;;;;;;;;7.70;99.90;;;;;;5053339;28;19991;-74
2021/12/16 07:27:36;;;;;;;;;;;7.70;99.90;;;;;;5054265;28;19920;-74
2021/12/16 07:30:06;;;;;;;;;;;7.70;99.90;;;;;;5053749;28;19905;-75
2021/12/16 07:32:32;;;;;;;;;;;7.70;99.90;;;;;;5053792;28;19904;-74
2021/12/16 07:34:57;;;;;;;;;;;7.70;99.90;;;;;;5052980;28;20367;-74
2021/12/16 07:37:23;;;;;;;;;;;7.70;99.90;;;;;;5053539;28;19959;-74
2021/12/16 07:39:50;;;;;;;;;;;7.70;99.90;;;;;;5053952;28;19959;-74
2021/12/16 07:42:24;;;;;;;;;;;7.70;99.90;;;;;;5053010;28;19905;-74
2021/12/16 07:44:49;;;;;;;;;;;7.70;99.90;;;;;;5053519;28;20110;-75
2021/12/16 07:47:15;;;;;;;;;;;7.70;99.90;;;;;;5053308;28;19911;-73
2021/12/16 07:49:41;;;;;;;;;;;7.80;99.90;;;;;;5053669;28;19958;-75
2021/12/16 07:52:09;;;;;;;;;;;7.80;99.90;;;;;;5052809;28;19912;-75
2021/12/16 07:54:34;;;;;;;;;;;7.90;99.90;;;;;;5053945;28;20385;-75
2021/12/16 07:57:01;;;;;;;;;;;7.80;99.90;;;;;;5053236;28;19995;-75
2021/12/16 07:59:27;;;;;;;;;;;7.80;99.90;;;;;;5052975;28;19991;-74
2021/12/16 08:01:53;;;;;;;;;;;7.90;99.90;;;;;;5052158;28;19908;-75
2021/12/16 08:04:21;;;;;;;;;;;8.00;99.90;;;;;;5052859;28;19913;-75
2021/12/16 08:06:50;;;;;;;;;;;8.00;99.90;;;;;;5053076;28;19952;-75
2021/12/16 08:09:16;;;;;;;;;;;8.10;99.90;;;;;;5052524;28;19959;-75
2021/12/16 08:11:42;;;;;;;;;;;8.10;99.90;;;;;;5053239;28;20375;-75
2021/12/16 08:14:08;;;;;;;;;;;8.20;99.90;;;;;;5052693;28;19974;-75
2021/12/16 08:16:34;;;;;;;;;;;8.20;99.90;;;;;;5053467;28;19908;-76
2021/12/16 08:19:00;;;;;;;;;;;8.40;99.90;;;;;;5053559;28;20391;-75
2021/12/16 08:21:28;;;;;;;;;;;8.40;99.90;;;;;;5052551;28;19927;-75
2021/12/16 08:23:54;;;;;;;;;;;8.40;99.90;;;;;;5052938;28;19913;-74
2021/12/16 08:26:20;;;;;;;;;;;8.40;99.90;;;;;;5052557;28;19905;-76
2021/12/16 08:28:46;;;;;;;;;;;8.50;99.90;;;;;;5053218;28;20303;-75
2021/12/16 08:31:11;;;;;;;;;;;8.60;99.90;;;;;;5051183;28;20329;-76
2021/12/16 08:33:38;;;;;;;;;;;8.60;99.90;;;;;;5053174;28;20375;-75
2021/12/16 08:36:04;;;;;;;;;;;8.70;99.90;;;;;;5052759;28;19904;-75
2021/12/16 08:38:31;;;;;;;;;;;8.70;99.90;;;;;;5052398;28;20377;-76
2021/12/16 08:41:00;;;;;;;;;;;8.80;99.90;;;;;;5053103;28;20244;-75
2021/12/16 08:43:26;;;;;;;;;;;8.80;99.90;;;;;;5052462;28;20004;-75
2021/12/16 08:45:52;;;;;;;;;;;8.90;99.90;;;;;;5052672;28;19905;-74
2021/12/16 08:48:18;;;;;;;;;;;9.00;99.90;;;;;;5051888;28;19912;-74
2021/12/16 08:50:45;;;;;;;;;;;9.00;99.90;;;;;;5052383;28;19988;-74
2021/12/16 08:53:11;;;;;;;;;;;9.10;99.90;;;;;;5051805;28;20302;-76
2021/12/16 08:55:37;;;;;;;;;;;9.10;99.90;;;;;;5052313;28;19905;-73
2021/12/16 08:58:03;;;;;;;;;;;9.20;99.90;;;;;;5052132;28;19959;-74
2021/12/16 09:00:31;;;;;;;;;;;9.20;99.90;;;;;;5051813;28;19901;-74
2021/12/16 09:02:57;;;;;;;;;;;9.20;99.90;;;;;;5051422;28;20374;-74
2021/12/16 09:05:23;;;;;;;;;;;9.30;99.90;;;;;;5051681;28;19909;-73
2021/12/16 09:07:49;;;;;;;;;;;9.40;99.90;;;;;;5052578;28;19920;-74
2021/12/16 09:10:21;;;;;;;;;;;9.40;99.90;;;;;;5051570;28;19911;-75
2021/12/16 09:12:52;;;;;;;;;;;9.40;99.90;;;;;;5051892;28;20359;-74
2021/12/16 09:15:18;;;;;;;;;;;9.50;99.90;;;;;;5051642;28;19948;-75
2021/12/16 09:17:43;;;;;;;;;;;9.50;99.90;;;;;;5052345;28;19940;-74
2021/12/16 09:20:09;;;;;;;;;;;9.60;99.90;;;;;;5051989;28;19948;-74
2021/12/16 09:22:35;;;;;;;;;;;9.70;99.90;;;;;;5052001;28;19905;-73
2021/12/16 09:25:01;;;;;;;;;;;9.70;99.90;;;;;;5052257;28;19959;-74
2021/12/16 09:27:29;;;;;;;;;;;9.70;99.90;;;;;;5051855;28;19984;-73
2021/12/16 09:29:55;;;;;;;;;;;9.70;99.90;;;;;;5052693;28;19988;-74
2021/12/16 09:32:23;;;;;;;;;;;9.90;99.90;;;;;;5050523;28;20302;-74
2021/12/16 09:34:50;;;;;;;;;;;9.90;99.90;;;;;;5053144;28;19912;-74
2021/12/16 09:37:15;;;;;;;;;;;9.90;99.90;;;;;;5052771;28;19911;-73
2021/12/16 09:39:41;;;;;;;;;;;10.00;99.90;;;;;;5052337;28;19909;-74
2021/12/16 09:42:09;;;;;;;;;;;10.00;99.90;;;;;;5052710;28;20267;-74
2021/12/16 09:44:36;;;;;;;;;;;10.00;99.90;;;;;;5051421;28;19912;-73
2021/12/16 09:47:03;;;;;;;;;;;10.00;99.90;;;;;;5052153;28;19962;-74
2021/12/16 09:49:29;;;;;;;;;;;10.00;99.90;;;;;;5051217;28;19904;-74
2021/12/16 09:51:55;;;;;;;;;;;10.10;99.90;;;;;;5051992;28;19911;-74
2021/12/16 09:54:25;;;;;;;;;;;10.10;99.90;;;;;;5051526;28;19963;-74
2021/12/16 09:56:51;;;;;;;;;;;10.20;99.90;;;;;;5052079;28;19905;-73
2021/12/16 09:59:17;;;;;;;;;;;10.20;99.90;;;;;;5051523;28;19912;-75
2021/12/16 10:01:44;;;;;;;;;;;10.20;99.90;;;;;;5052195;28;19909;-74
2021/12/16 10:04:11;;;;;;;;;;;10.20;99.90;;;;;;5052003;28;19913;-74
2021/12/16 10:06:38;;;;;;;;;;;10.10;99.90;;;;;;5051078;28;19909;-73
2021/12/16 10:09:05;;;;;;;;;;;10.10;99.90;;;;;;5052009;28;19921;-74
2021/12/16 10:11:31;;;;;;;;;;;10.20;99.90;;;;;;5051227;28;19905;-74
2021/12/16 10:19:15;;;;;;;;;;;10.20;99.90;;;;;;5054458;28;19905;-76
2021/12/16 10:21:42;;;;;;;;;;;10.20;99.90;;;;;;5055733;28;19911;-74
2021/12/16 10:24:20;;;;;;;;;;;10.20;99.90;;;;;;5055625;28;19919;-73
2021/12/16 10:26:46;;;;;;;;;;;10.30;99.90;;;;;;5055415;28;19958;-74
2021/12/16 10:29:11;;;;;;;;;;;10.30;99.90;;;;;;5055197;28;19909;-74
2021/12/16 10:31:37;;;;;;;;;;;10.30;99.90;;;;;;5054684;28;19908;-74
2021/12/16 10:34:04;;;;;;;;;;;10.30;99.90;;;;;;5054927;28;19909;-74
2021/12/16 10:36:31;;;;;;;;;;;10.30;99.90;;;;;;5054686;28;19992;-74
2021/12/16 10:38:59;;;;;;;;;;;10.30;99.90;;;;;;5055317;28;19905;-74
2021/12/16 10:41:28;;;;;;;;;;;10.40;99.90;;;;;;5054604;28;19912;-74
2021/12/16 10:43:56;;;;;;;;;;;10.40;99.90;;;;;;5054984;28;19913;-74
2021/12/16 10:46:25;;;;;;;;;;;10.40;99.90;;;;;;5054829;28;19905;-74
2021/12/16 10:48:52;;;;;;;;;;;10.50;99.90;;;;;;5053912;28;19955;-74
2021/12/16 10:51:23;;;;;;;;;;;10.50;99.90;;;;;;5054737;28;19905;-75
2021/12/16 10:54:08;;;;;;;;;;;10.50;99.90;;;;;;5054780;28;19934;-74
2021/12/16 10:56:36;;;;;;;;;;;10.50;99.90;;;;;;5054435;28;19987;-73
2021/12/16 10:59:12;;;;;;;;;;;10.60;99.90;;;;;;5054844;28;19904;-74
2021/12/16 11:01:44;;;;;;;;;;;10.60;99.90;;;;;;5056214;28;19901;-74
2021/12/16 11:04:24;;;;;;;;;;;10.70;99.90;;;;;;5053378;28;19913;-73
2021/12/16 11:06:52;;;;;;;;;;;10.70;99.90;;;;;;5054554;28;19991;-75
2021/12/16 11:09:26;;;;;;;;;;;10.70;99.90;;;;;;5054547;28;19958;-74
2021/12/16 11:12:10;;;;;;;;;;;10.80;99.90;;;;;;5054474;28;19905;-74
2021/12/16 11:14:37;;;;;;;;;;;10.80;99.90;;;;;;5052677;28;19911;-74
2021/12/16 11:17:05;;;;;;;;;;;10.90;99.90;;;;;;5054771;28;19954;-74
2021/12/16 11:19:51;;;;;;;;;;;10.90;99.90;;;;;;5053791;28;19905;-73
2021/12/16 11:22:18;;;;;;;;;;;10.90;99.90;;;;;;5070002;28;19952;-74
2021/12/16 11:24:44;;;;;;;;;;;11.00;99.90;;;;;;5053278;28;19952;-73
2021/12/16 11:27:24;;;;;;;;;;;11.00;99.90;;;;;;5054009;28;19935;-74
2021/12/16 11:29:50;;;;;;;;;;;11.10;99.90;;;;;;5054619;28;19905;-74
2021/12/16 11:32:34;;;;;;;;;;;11.20;99.90;;;;;;5053970;28;19905;-74
2021/12/16 11:35:00;;;;;;;;;;;11.20;99.90;;;;;;5053973;28;19905;-73
2021/12/16 11:37:25;;;;;;;;;;;11.40;99.90;;;;;;5052223;28;20328;-74
2021/12/16 11:39:51;;;;;;;;;;;11.30;99.90;;;;;;5053907;28;19905;-74
2021/12/16 11:42:25;;;;;;;;;;;11.40;99.90;;;;;;5054064;28;19909;-73
2021/12/16 11:44:52;;;;;;;;;;;11.40;99.90;;;;;;5052833;28;19920;-73
2021/12/16 11:47:20;;;;;;;;;;;11.40;99.90;;;;;;5053739;28;20304;-74
2021/12/16 11:49:47;;;;;;;;;;;11.30;99.90;;;;;;5053652;28;19905;-74
2021/12/16 11:52:25;;;;;;;;;;;11.30;99.90;;;;;;5052602;28;20363;-74
2021/12/16 11:55:05;;;;;;;;;;;11.30;99.90;;;;;;5054051;28;19953;-73
2021/12/16 11:57:47;;;;;;;;;;;11.30;99.90;;;;;;5053130;28;19926;-74
2021/12/16 12:00:23;;;;;;;;;;;11.20;99.90;;;;;;5053878;28;19905;-74
2021/12/16 12:02:56;;;;;;;;;;;11.20;99.90;;;;;;5058011;28;19912;-74
2021/12/16 12:05:22;;;;;;;;;;;11.10;99.90;;;;;;5051887;28;20257;-74
2021/12/16 12:07:52;;;;;;;;;;;11.10;99.90;;;;;;5052586;28;19924;-73
2021/12/16 12:10:34;;;;;;;;;;;11.00;99.90;;;;;;5068880;28;20262;-74
2021/12/16 12:13:02;;;;;;;;;;;11.00;99.90;;;;;;5053189;28;19904;-74
2021/12/16 12:15:28;;;;;;;;;;;10.90;99.90;;;;;;5051366;28;19995;-74
2021/12/16 12:17:55;;;;;;;;;;;11.00;99.90;;;;;;5053634;28;19951;-73
2021/12/16 12:20:26;;;;;;;;;;;10.90;99.90;;;;;;5053160;28;19931;-74
2021/12/16 12:22:52;;;;;;;;;;;10.90;99.90;;;;;;5053229;28;20359;-74
2021/12/16 12:25:18;;;;;;;;;;;10.90;99.90;;;;;;5053008;28;19927;-74
2021/12/16 12:27:43;;;;;;;;;;;10.90;99.90;;;;;;5052923;28;20058;-74
2021/12/16 12:30:09;;;;;;;;;;;10.90;99.90;;;;;;5053508;28;20344;-75
2021/12/16 12:32:40;;;;;;;;;;;10.90;99.90;;;;;;5052370;28;20010;-74
2021/12/16 12:35:12;;;;;;;;;;;10.90;99.90;;;;;;5053192;28;19951;-75
2021/12/16 12:37:39;;;;;;;;;;;10.90;99.90;;;;;;5051748;28;20322;-76
2021/12/16 12:40:13;;;;;;;;;;;10.90;99.90;;;;;;5053768;28;19912;-74
2021/12/16 12:42:39;;;;;;;;;;;10.80;99.90;;;;;;5052383;28;19905;-74
2021/12/16 12:45:06;;;;;;;;;;;10.80;99.90;;;;;;5068130;28;19920;-76
2021/12/16 12:47:33;;;;;;;;;;;10.90;99.90;;;;;;5052012;28;19927;-76
2021/12/16 12:50:06;;;;;;;;;;;10.90;99.90;;;;;;5051596;28;19904;-75
2021/12/16 12:52:32;;;;;;;;;;;11.00;99.90;;;;;;5051875;28;20274;-75
2021/12/16 12:54:59;;;;;;;;;;;11.00;99.90;;;;;;5052443;28;19905;-75
2021/12/16 12:57:30;;;;;;;;;;;11.00;99.90;;;;;;5052542;28;20359;-76
2021/12/16 12:59:56;;;;;;;;;;;11.00;99.90;;;;;;5052591;28;20057;-75
2021/12/16 13:02:27;;;;;;;;;;;11.00;99.90;;;;;;5052572;28;20275;-75
2021/12/16 13:05:02;;;;;;;;;;;11.10;99.90;;;;;;5052610;28;19916;-75
2021/12/16 13:07:34;;;;;;;;;;;11.10;99.90;;;;;;5051903;28;19962;-76
2021/12/16 13:10:03;;;;;;;;;;;11.20;99.90;;;;;;5052524;28;19911;-76
2021/12/16 13:15:19;;;;;;;;;;;11.20;99.90;;;;;;5052497;28;19931;-75
2021/12/16 13:28:44;;;;;;;;;;;11.20;99.90;;;;;;5052247;28;20366;-74
2021/12/16 13:31:31;;;;;;;;;;;11.20;99.90;;;;;;5052507;28;19911;-73
2021/12/16 13:33:59;;;;;;;;;;;11.20;99.90;;;;;;5052299;28;19912;-76
2021/12/16 13:36:39;;;;;;;;;;;11.20;99.90;;;;;;5052122;28;20129;-75
2021/12/16 13:39:09;;;;;;;;;;;11.20;99.90;;;;;;5051918;28;19927;-75
2021/12/16 13:41:36;;;;;;;;;;;11.10;99.90;;;;;;5051105;28;20039;-75
2021/12/16 13:44:11;;;;;;;;;;;11.10;99.90;;;;;;5052139;28;19916;-75
2021/12/16 13:47:02;;;;;;;;;;;11.10;99.90;;;;;;5051611;28;20002;-75
2021/12/16 14:03:51;;;;;;;;;;;11.10;99.90;;;;;;5055965;28;20339;-75
2021/12/16 14:06:32;;;;;;;;;;;11.00;99.90;;;;;;5056458;28;19919;-75
2021/12/16 14:09:10;;;;;;;;;;;11.00;99.90;;;;;;5057671;28;19956;-74
2021/12/16 14:25:00;;;;;;;;;;;10.90;99.90;;;;;;5054910;28;20013;-76
2021/12/16 14:41:25;;;;;;;;;;;10.80;99.90;;;;;;5054842;28;20278;-75
2021/12/16 14:47:14;;;;;;;;;;;10.80;99.90;;;;;;5052884;28;19995;-73
2021/12/16 14:49:41;;;;;;;;;;;10.80;99.90;;;;;;5053787;28;19905;-74
2021/12/16 14:52:24;;;;;;;;;;;10.70;99.90;;;;;;5054736;28;19981;-74
2021/12/16 14:54:54;;;;;;;;;;;10.70;99.90;;;;;;5054287;28;19904;-74
2021/12/16 14:57:24;;;;;;;;;;;10.70;99.90;;;;;;5054498;28;19904;-74
2021/12/16 14:59:51;;;;;;;;;;;10.60;99.90;;;;;;5053950;28;19912;-74
2021/12/16 15:02:17;;;;;;;;;;;10.60;99.90;;;;;;5054261;28;19904;-74
2021/12/16 15:04:43;;;;;;;;;;;10.60;99.90;;;;;;5053734;28;19936;-74
2021/12/16 15:07:11;;;;;;;;;;;10.60;99.90;;;;;;5054308;28;19916;-74
2021/12/16 15:09:39;;;;;;;;;;;10.60;99.90;;;;;;5053811;28;19908;-76
2021/12/16 15:12:25;;;;;;;;;;;10.50;99.90;;;;;;5054684;28;20371;-76
2021/12/16 15:44:10;;;;;;;;;;;10.30;99.90;;;;;;5053165;28;19920;-75
2021/12/16 15:46:36;;;;;;;;;;;10.30;99.90;;;;;;5053237;28;20006;-75
2021/12/16 15:49:02;;;;;;;;;;;10.20;99.90;;;;;;5053349;28;19905;-74
2021/12/16 15:51:28;;;;;;;;;;;10.20;99.90;;;;;;5053058;28;20312;-75
2021/12/16 15:53:58;;;;;;;;;;;10.20;99.90;;;;;;5052889;28;19996;-74
2021/12/16 15:56:29;;;;;;;;;;;10.20;99.90;;;;;;5053463;28;19908;-73
2021/12/16 15:58:57;;;;;;;;;;;10.20;99.90;;;;;;5052574;28;19949;-74
2021/12/16 16:01:27;;;;;;;;;;;10.20;99.90;;;;;;5053255;28;20352;-73
2021/12/16 16:03:53;;;;;;;;;;;10.20;99.90;;;;;;5052494;28;20363;-73
2021/12/16 16:06:19;;;;;;;;;;;10.20;99.90;;;;;;5053140;28;19905;-75
2021/12/16 16:08:51;;;;;;;;;;;10.20;99.90;;;;;;5052134;28;19916;-73
2021/12/16 16:11:19;;;;;;;;;;;10.20;99.90;;;;;;5068129;28;20434;-74
2021/12/16 16:13:49;;;;;;;;;;;10.20;99.90;;;;;;5052788;28;19904;-73
2021/12/16 16:16:17;;;;;;;;;;;10.20;99.90;;;;;;5053110;28;19905;-74
2021/12/16 16:18:54;;;;;;;;;;;10.20;99.90;;;;;;5052253;28;19970;-74
2021/12/16 16:21:23;;;;;;;;;;;10.10;99.90;;;;;;5052931;28;20352;-74
2021/12/16 16:23:52;;;;;;;;;;;10.20;99.90;;;;;;5052360;28;19913;-75
2021/12/16 16:26:18;;;;;;;;;;;10.20;99.90;;;;;;5052937;28;20358;-75
2021/12/16 16:28:45;;;;;;;;;;;10.10;99.90;;;;;;5052380;28;19905;-74
2021/12/16 16:31:12;;;;;;;;;;;10.10;99.90;;;;;;5052759;28;20347;-74
2021/12/16 16:33:38;;;;;;;;;;;10.10;99.90;;;;;;5052232;28;19905;-75
2021/12/16 16:36:08;;;;;;;;;;;10.10;99.90;;;;;;5052514;28;19911;-74
2021/12/16 16:38:37;;;;;;;;;;;10.10;99.90;;;;;;5052663;28;19947;-74
2021/12/16 16:41:05;;;;;;;;;;;10.00;99.90;;;;;;5052284;28;19908;-73
2021/12/16 16:43:34;;;;;;;;;;;10.10;99.90;;;;;;5052185;28;19913;-74
2021/12/16 16:46:04;;;;;;;;;;;10.00;99.90;;;;;;5051773;28;19907;-75
2021/12/16 16:49:02;;;;;;;;;;;10.00;99.90;;;;;;5052714;28;19905;-74
2021/12/16 16:51:19;;;;;;;;;;;10.00;99.90;;;;;;5049483;28;20357;-75
2021/12/16 16:53:47;;;;;;;;;;;10.00;99.90;;;;;;5049551;28;20006;-74
2021/12/16 16:56:12;;;;;;;;;;;10.00;99.90;;;;;;5052180;28;19912;-74
2021/12/16 16:58:38;;;;;;;;;;;10.00;99.90;;;;;;5052311;28;20263;-75
2021/12/16 17:01:04;;;;;;;;;;;10.00;99.90;;;;;;5051503;28;19908;-74
2021/12/16 17:03:30;;;;;;;;;;;10.00;99.90;;;;;;5052321;28;19974;-75
2021/12/16 17:05:59;;;;;;;;;;;10.00;99.90;;;;;;5051650;28;19908;-75
2021/12/16 17:08:33;;;;;;;;;;;10.00;99.90;;;;;;5050502;28;19924;-74
2021/12/16 17:11:01;;;;;;;;;;;10.00;99.90;;;;;;5050648;28;19901;-75
2021/12/16 17:13:43;;;;;;;;;;;10.00;99.90;;;;;;5051296;28;19905;-75
2021/12/16 17:18:38;;;;;;;;;;;10.00;99.90;;;;;;5050922;28;20443;-76
2021/12/16 17:21:21;;;;;;;;;;;10.00;99.90;;;;;;5051380;28;19948;-75
2021/12/16 17:23:50;;;;;;;;;;;10.00;99.90;;;;;;5064543;28;20011;-76
2021/12/16 17:26:21;;;;;;;;;;;10.00;99.90;;;;;;5051223;28;20278;-76
2021/12/16 17:28:55;;;;;;;;;;;10.00;99.90;;;;;;5050582;28;19915;-75
2021/12/16 17:31:40;;;;;;;;;;;10.00;99.90;;;;;;5050964;28;19904;-75
2021/12/16 17:34:10;;;;;;;;;;;10.00;99.90;;;;;;5050747;28;19912;-76
2021/12/16 17:36:36;;;;;;;;;;;10.00;99.90;;;;;;5050670;28;19950;-76
2021/12/16 17:39:09;;;;;;;;;;;10.00;99.90;;;;;;5050785;28;20375;-76
2021/12/16 17:41:35;;;;;;;;;;;9.90;99.90;;;;;;5050864;28;20021;-75
2021/12/16 17:44:03;;;;;;;;;;;10.00;99.90;;;;;;5050214;28;20148;-75
2021/12/16 17:46:30;;;;;;;;;;;10.00;99.90;;;;;;5050883;28;19912;-76
2021/12/16 17:48:56;;;;;;;;;;;10.00;99.90;;;;;;5050482;28;19904;-76
2021/12/16 17:51:24;;;;;;;;;;;10.00;99.90;;;;;;5050868;28;19995;-74
2021/12/16 17:53:52;;;;;;;;;;;9.90;99.90;;;;;;5050625;28;19919;-76
2021/12/16 17:56:18;;;;;;;;;;;9.90;99.90;;;;;;5050515;28;19927;-75
2021/12/16 17:58:47;;;;;;;;;;;9.90;99.90;;;;;;5050750;28;19947;-77
2021/12/16 18:01:18;;;;;;;;;;;9.90;99.90;;;;;;5050752;28;20329;-76
2021/12/16 18:03:58;;;;;;;;;;;9.90;99.90;;;;;;5050087;28;19920;-76
2021/12/16 18:06:28;;;;;;;;;;;9.80;99.90;;;;;;5050670;28;20294;-75
2021/12/16 18:08:58;;;;;;;;;;;9.80;99.90;;;;;;4995790;28;1536718;-75
2021/12/16 18:11:29;;;;;;;;;;;9.90;99.90;;;;;;5051983;28;19952;-75
2021/12/16 18:13:59;;;;;;;;;;;9.80;99.90;;;;;;5051156;28;19904;-76
2021/12/16 18:16:28;;;;;;;;;;;9.80;99.90;;;;;;5051618;28;19909;-76